Bookmark and Share
Track history (hours):
 

Arthur Maersk

Last reported at 2014-Apr-22 08:29 UTC. Time now 2014-Apr-23 19:18 UTC.
Position N 36°44' W 023°40'.

Length 352 m; draft 12.4 m.

Type: Cargo ship. MMSI: 220221000.

NotesDate/timePositionNaut miles runAvg speedWind from/ knotsBaromVisibWave heightAir tempDewpointWater temp
2014-Apr-22 08:29N 36°44' W 023°40'1515.9
2014-Apr-22 07:33N 36°46' W 023°58'1615.7
2014-Apr-22 06:33N 36°46' W 024°18'1515.5
2014-Apr-22 05:33N 36°47' W 024°37'1615.9
2014-Apr-22 04:33N 36°47' W 024°57'1615.7
2014-Apr-22 03:33N 36°48' W 025°16'1515.5
2014-Apr-22 02:33N 36°49' W 025°36'1615.7
2014-Apr-22 01:33N 36°50' W 025°55'1615.7
2014-Apr-22 00:33N 36°51' W 026°15'1616.1
2014-Apr-21 23:33N 36°52' W 026°35'1615.9
2014-Apr-21 22:34N 36°53' W 026°55'1615.8
2014-Apr-21 21:33N 36°55' W 027°15'8016.0
2014-Apr-21 16:32N 36°60' W 028°55'1816.2
2014-Apr-21 15:27N 37°01' W 029°17'3016.1
2014-Apr-21 13:33N 37°02' W 029°55'1616.0
2014-Apr-21 12:33N 37°03' W 030°15'1717.5
2014-Apr-21 11:33N 37°04' W 030°37'1817.2
2014-Apr-21 10:31N 37°05' W 030°59'1816.7
2014-Apr-21 09:27N 37°07' W 031°21'5016.5
2014-Apr-21 06:27N 37°09' W 032°24'  
2014-Apr-12 13:06N 36°50' W 075°50'5 9.4
2014-Apr-12 12:33N 36°54' W 075°55'1110.9
2014-Apr-12 11:33N 36°59' W 076°07'1110.8
2014-Apr-12 10:33N 36°57' W 076°20'5 4.6
2014-Apr-12 09:33N 36°52' W 076°21'0 0.0
2014-Apr-12 08:33N 36°52' W 076°21'  

Dump ship's entire track history

sailing weather and tide predictions

Arthur Maersk — OXJH2 — position and weather